sensor_id;sensor_type;location;lat;lon;timestamp;P1;durP1;ratioP1;P2;durP2;ratioP2
66856;SDS011;53766;50.280;19.160;2023-07-31T00:00:58;5.68;;;3.20;;
66856;SDS011;53766;50.280;19.160;2023-07-31T00:03:27;5.38;;;3.30;;
66856;SDS011;53766;50.280;19.160;2023-07-31T00:05:54;7.38;;;3.00;;
66856;SDS011;53766;50.280;19.160;2023-07-31T00:08:22;7.35;;;3.00;;
66856;SDS011;53766;50.280;19.160;2023-07-31T00:10:53;4.82;;;2.83;;
66856;SDS011;53766;50.280;19.160;2023-07-31T00:13:20;7.22;;;3.00;;
66856;SDS011;53766;50.280;19.160;2023-07-31T00:15:48;4.75;;;2.60;;
66856;SDS011;53766;50.280;19.160;2023-07-31T00:18:15;6.55;;;2.78;;
66856;SDS011;53766;50.280;19.160;2023-07-31T00:20:43;5.85;;;2.60;;
66856;SDS011;53766;50.280;19.160;2023-07-31T00:23:10;5.28;;;2.83;;
66856;SDS011;53766;50.280;19.160;2023-07-31T00:25:38;5.35;;;2.72;;
66856;SDS011;53766;50.280;19.160;2023-07-31T00:28:05;6.25;;;2.75;;
66856;SDS011;53766;50.280;19.160;2023-07-31T00:30:33;4.57;;;2.70;;
66856;SDS011;53766;50.280;19.160;2023-07-31T00:33:00;4.15;;;2.50;;
66856;SDS011;53766;50.280;19.160;2023-07-31T00:35:28;7.85;;;2.90;;
66856;SDS011;53766;50.280;19.160;2023-07-31T00:37:56;4.47;;;2.50;;
66856;SDS011;53766;50.280;19.160;2023-07-31T00:40:25;4.90;;;2.70;;
66856;SDS011;53766;50.280;19.160;2023-07-31T00:42:52;4.50;;;2.90;;
66856;SDS011;53766;50.280;19.160;2023-07-31T00:45:20;5.88;;;2.80;;
66856;SDS011;53766;50.280;19.160;2023-07-31T00:47:50;7.55;;;2.60;;
66856;SDS011;53766;50.280;19.160;2023-07-31T00:50:18;5.53;;;2.80;;
66856;SDS011;53766;50.280;19.160;2023-07-31T00:52:45;5.30;;;2.90;;
66856;SDS011;53766;50.280;19.160;2023-07-31T00:55:13;6.00;;;2.80;;
66856;SDS011;53766;50.280;19.160;2023-07-31T00:57:41;3.97;;;2.50;;
66856;SDS011;53766;50.280;19.160;2023-07-31T01:00:10;7.32;;;2.90;;
66856;SDS011;53766;50.280;19.160;2023-07-31T01:02:37;4.15;;;2.53;;
66856;SDS011;53766;50.280;19.160;2023-07-31T01:05:06;4.60;;;2.65;;
66856;SDS011;53766;50.280;19.160;2023-07-31T01:10:18;7.45;;;2.95;;
66856;SDS011;53766;50.280;19.160;2023-07-31T01:12:51;7.15;;;2.67;;
66856;SDS011;53766;50.280;19.160;2023-07-31T01:15:20;5.07;;;2.70;;
66856;SDS011;53766;50.280;19.160;2023-07-31T01:17:48;5.45;;;2.70;;
66856;SDS011;53766;50.280;19.160;2023-07-31T01:20:20;6.55;;;2.60;;
66856;SDS011;53766;50.280;19.160;2023-07-31T01:28:36;5.28;;;2.38;;
66856;SDS011;53766;50.280;19.160;2023-07-31T01:31:07;3.45;;;2.20;;
66856;SDS011;53766;50.280;19.160;2023-07-31T01:33:38;3.38;;;2.20;;
66856;SDS011;53766;50.280;19.160;2023-07-31T01:36:06;4.85;;;2.20;;
66856;SDS011;53766;50.280;19.160;2023-07-31T01:38:34;5.82;;;2.38;;
66856;SDS011;53766;50.280;19.160;2023-07-31T01:41:02;4.28;;;2.20;;
66856;SDS011;53766;50.280;19.160;2023-07-31T01:43:29;4.85;;;2.30;;
66856;SDS011;53766;50.280;19.160;2023-07-31T01:45:57;4.78;;;2.35;;
66856;SDS011;53766;50.280;19.160;2023-07-31T01:48:24;5.05;;;2.35;;
66856;SDS011;53766;50.280;19.160;2023-07-31T01:50:52;6.40;;;2.60;;
66856;SDS011;53766;50.280;19.160;2023-07-31T01:53:19;4.63;;;2.60;;
66856;SDS011;53766;50.280;19.160;2023-07-31T01:55:47;4.45;;;2.17;;
66856;SDS011;53766;50.280;19.160;2023-07-31T01:58:14;4.13;;;2.42;;
66856;SDS011;53766;50.280;19.160;2023-07-31T02:00:42;3.65;;;2.20;;
66856;SDS011;53766;50.280;19.160;2023-07-31T02:03:09;6.15;;;2.17;;
66856;SDS011;53766;50.280;19.160;2023-07-31T02:05:43;5.47;;;2.42;;
66856;SDS011;53766;50.280;19.160;2023-07-31T02:08:15;5.00;;;2.00;;
66856;SDS011;53766;50.280;19.160;2023-07-31T02:10:43;4.88;;;2.30;;
66856;SDS011;53766;50.280;19.160;2023-07-31T02:13:10;4.40;;;2.47;;
66856;SDS011;53766;50.280;19.160;2023-07-31T02:15:38;5.75;;;2.47;;
66856;SDS011;53766;50.280;19.160;2023-07-31T02:18:05;6.10;;;2.58;;
66856;SDS011;53766;50.280;19.160;2023-07-31T02:20:33;6.50;;;2.25;;
66856;SDS011;53766;50.280;19.160;2023-07-31T02:23:02;4.15;;;2.35;;
66856;SDS011;53766;50.280;19.160;2023-07-31T02:25:29;6.57;;;2.35;;
66856;SDS011;53766;50.280;19.160;2023-07-31T02:27:57;5.93;;;2.50;;
66856;SDS011;53766;50.280;19.160;2023-07-31T02:30:25;3.58;;;1.92;;
66856;SDS011;53766;50.280;19.160;2023-07-31T02:32:52;7.00;;;2.30;;
66856;SDS011;53766;50.280;19.160;2023-07-31T02:35:20;4.57;;;1.80;;
66856;SDS011;53766;50.280;19.160;2023-07-31T02:37:47;4.50;;;2.10;;
66856;SDS011;53766;50.280;19.160;2023-07-31T02:40:15;5.13;;;2.10;;
66856;SDS011;53766;50.280;19.160;2023-07-31T02:42:43;3.30;;;1.90;;
66856;SDS011;53766;50.280;19.160;2023-07-31T02:45:10;4.57;;;1.95;;
66856;SDS011;53766;50.280;19.160;2023-07-31T02:47:38;7.45;;;2.10;;
66856;SDS011;53766;50.280;19.160;2023-07-31T02:50:05;4.70;;;2.10;;
66856;SDS011;53766;50.280;19.160;2023-07-31T02:52:33;5.15;;;1.83;;
66856;SDS011;53766;50.280;19.160;2023-07-31T02:55:01;5.78;;;1.70;;
66856;SDS011;53766;50.280;19.160;2023-07-31T02:57:28;3.58;;;1.70;;
66856;SDS011;53766;50.280;19.160;2023-07-31T02:59:56;5.00;;;1.60;;
66856;SDS011;53766;50.280;19.160;2023-07-31T03:02:23;6.45;;;1.88;;
66856;SDS011;53766;50.280;19.160;2023-07-31T03:04:51;3.47;;;1.60;;
66856;SDS011;53766;50.280;19.160;2023-07-31T03:07:19;3.40;;;1.70;;
66856;SDS011;53766;50.280;19.160;2023-07-31T03:09:46;4.03;;;1.90;;
66856;SDS011;53766;50.280;19.160;2023-07-31T03:12:13;3.78;;;1.85;;
66856;SDS011;53766;50.280;19.160;2023-07-31T03:14:41;6.47;;;1.90;;
66856;SDS011;53766;50.280;19.160;2023-07-31T03:17:09;6.55;;;2.03;;
66856;SDS011;53766;50.280;19.160;2023-07-31T03:19:36;2.42;;;1.63;;
66856;SDS011;53766;50.280;19.160;2023-07-31T03:22:04;6.10;;;1.80;;
66856;SDS011;53766;50.280;19.160;2023-07-31T03:24:32;4.07;;;1.70;;
66856;SDS011;53766;50.280;19.160;2023-07-31T03:26:59;3.10;;;1.85;;
66856;SDS011;53766;50.280;19.160;2023-07-31T03:29:27;6.28;;;1.88;;
66856;SDS011;53766;50.280;19.160;2023-07-31T03:31:54;5.20;;;1.90;;
66856;SDS011;53766;50.280;19.160;2023-07-31T03:34:22;4.72;;;1.70;;
66856;SDS011;53766;50.280;19.160;2023-07-31T03:36:49;3.28;;;1.80;;
66856;SDS011;53766;50.280;19.160;2023-07-31T03:39:17;3.00;;;1.70;;
66856;SDS011;53766;50.280;19.160;2023-07-31T03:41:45;6.13;;;2.00;;
66856;SDS011;53766;50.280;19.160;2023-07-31T03:44:13;4.30;;;1.90;;
66856;SDS011;53766;50.280;19.160;2023-07-31T03:46:40;5.47;;;2.03;;
66856;SDS011;53766;50.280;19.160;2023-07-31T03:49:08;5.60;;;1.95;;
66856;SDS011;53766;50.280;19.160;2023-07-31T03:51:36;4.05;;;1.90;;
66856;SDS011;53766;50.280;19.160;2023-07-31T03:54:03;3.33;;;1.70;;
66856;SDS011;53766;50.280;19.160;2023-07-31T03:56:31;3.38;;;1.67;;
66856;SDS011;53766;50.280;19.160;2023-07-31T03:59:02;5.90;;;2.00;;
66856;SDS011;53766;50.280;19.160;2023-07-31T04:01:29;4.28;;;1.95;;
66856;SDS011;53766;50.280;19.160;2023-07-31T04:03:57;5.30;;;1.70;;
66856;SDS011;53766;50.280;19.160;2023-07-31T04:06:24;5.00;;;1.63;;
66856;SDS011;53766;50.280;19.160;2023-07-31T04:08:52;4.32;;;1.80;;
66856;SDS011;53766;50.280;19.160;2023-07-31T04:11:19;7.32;;;1.67;;
66856;SDS011;53766;50.280;19.160;2023-07-31T04:13:47;6.00;;;1.58;;
66856;SDS011;53766;50.280;19.160;2023-07-31T04:16:14;5.40;;;1.88;;
66856;SDS011;53766;50.280;19.160;2023-07-31T04:18:42;3.97;;;1.80;;
66856;SDS011;53766;50.280;19.160;2023-07-31T04:21:10;2.75;;;1.70;;
66856;SDS011;53766;50.280;19.160;2023-07-31T04:23:37;4.78;;;1.80;;
66856;SDS011;53766;50.280;19.160;2023-07-31T04:26:05;3.67;;;1.45;;
66856;SDS011;53766;50.280;19.160;2023-07-31T04:28:33;5.93;;;2.13;;
66856;SDS011;53766;50.280;19.160;2023-07-31T04:31:00;3.38;;;1.60;;
66856;SDS011;53766;50.280;19.160;2023-07-31T04:33:28;6.85;;;2.00;;
66856;SDS011;53766;50.280;19.160;2023-07-31T04:35:55;5.03;;;2.08;;
66856;SDS011;53766;50.280;19.160;2023-07-31T04:38:23;4.38;;;1.90;;
66856;SDS011;53766;50.280;19.160;2023-07-31T04:40:50;4.38;;;1.73;;
66856;SDS011;53766;50.280;19.160;2023-07-31T04:43:18;6.57;;;2.20;;
66856;SDS011;53766;50.280;19.160;2023-07-31T04:45:45;6.53;;;2.30;;
66856;SDS011;53766;50.280;19.160;2023-07-31T04:48:17;6.43;;;2.08;;
66856;SDS011;53766;50.280;19.160;2023-07-31T04:50:45;5.53;;;1.90;;
66856;SDS011;53766;50.280;19.160;2023-07-31T04:53:12;4.10;;;1.90;;
66856;SDS011;53766;50.280;19.160;2023-07-31T04:55:40;6.05;;;1.90;;
66856;SDS011;53766;50.280;19.160;2023-07-31T04:58:07;6.50;;;1.92;;
66856;SDS011;53766;50.280;19.160;2023-07-31T05:00:35;8.60;;;2.10;;
66856;SDS011;53766;50.280;19.160;2023-07-31T05:03:02;7.93;;;2.28;;
66856;SDS011;53766;50.280;19.160;2023-07-31T05:05:30;6.78;;;2.00;;
66856;SDS011;53766;50.280;19.160;2023-07-31T05:07:57;6.95;;;2.00;;
66856;SDS011;53766;50.280;19.160;2023-07-31T05:10:25;4.38;;;1.90;;
66856;SDS011;53766;50.280;19.160;2023-07-31T05:12:52;6.63;;;2.10;;
66856;SDS011;53766;50.280;19.160;2023-07-31T05:15:20;9.68;;;2.20;;
66856;SDS011;53766;50.280;19.160;2023-07-31T05:17:47;8.77;;;1.95;;
66856;SDS011;53766;50.280;19.160;2023-07-31T05:20:15;7.32;;;2.00;;
66856;SDS011;53766;50.280;19.160;2023-07-31T05:22:43;9.45;;;1.95;;
66856;SDS011;53766;50.280;19.160;2023-07-31T05:25:10;7.13;;;2.35;;
66856;SDS011;53766;50.280;19.160;2023-07-31T05:27:38;5.90;;;2.40;;
66856;SDS011;53766;50.280;19.160;2023-07-31T05:30:05;4.90;;;1.98;;
66856;SDS011;53766;50.280;19.160;2023-07-31T05:32:34;4.13;;;2.03;;
66856;SDS011;53766;50.280;19.160;2023-07-31T05:35:01;6.20;;;2.35;;
66856;SDS011;53766;50.280;19.160;2023-07-31T05:37:29;4.60;;;2.20;;
66856;SDS011;53766;50.280;19.160;2023-07-31T05:39:56;5.72;;;2.17;;
66856;SDS011;53766;50.280;19.160;2023-07-31T05:42:24;4.95;;;2.50;;
66856;SDS011;53766;50.280;19.160;2023-07-31T05:44:51;6.38;;;2.45;;
66856;SDS011;53766;50.280;19.160;2023-07-31T05:47:19;10.63;;;2.30;;
66856;SDS011;53766;50.280;19.160;2023-07-31T05:49:46;9.18;;;2.17;;
66856;SDS011;53766;50.280;19.160;2023-07-31T05:52:15;4.82;;;2.10;;
66856;SDS011;53766;50.280;19.160;2023-07-31T05:54:42;8.70;;;1.98;;
66856;SDS011;53766;50.280;19.160;2023-07-31T05:57:10;5.50;;;1.92;;
66856;SDS011;53766;50.280;19.160;2023-07-31T05:59:37;5.32;;;2.13;;
66856;SDS011;53766;50.280;19.160;2023-07-31T06:02:05;5.00;;;1.85;;
66856;SDS011;53766;50.280;19.160;2023-07-31T06:04:33;6.82;;;2.20;;
66856;SDS011;53766;50.280;19.160;2023-07-31T06:07:01;6.93;;;2.03;;
66856;SDS011;53766;50.280;19.160;2023-07-31T06:09:28;5.53;;;2.20;;
66856;SDS011;53766;50.280;19.160;2023-07-31T06:11:56;7.25;;;2.20;;
66856;SDS011;53766;50.280;19.160;2023-07-31T06:14:24;7.47;;;3.05;;
66856;SDS011;53766;50.280;19.160;2023-07-31T06:16:51;12.52;;;2.30;;
66856;SDS011;53766;50.280;19.160;2023-07-31T06:19:19;9.52;;;2.65;;
66856;SDS011;53766;50.280;19.160;2023-07-31T06:21:47;9.63;;;2.22;;
66856;SDS011;53766;50.280;19.160;2023-07-31T06:24:14;6.35;;;2.38;;
66856;SDS011;53766;50.280;19.160;2023-07-31T06:26:46;9.80;;;2.35;;
66856;SDS011;53766;50.280;19.160;2023-07-31T06:29:13;6.95;;;2.03;;
66856;SDS011;53766;50.280;19.160;2023-07-31T06:31:41;5.90;;;2.22;;
66856;SDS011;53766;50.280;19.160;2023-07-31T06:34:09;8.57;;;2.33;;
66856;SDS011;53766;50.280;19.160;2023-07-31T06:36:36;7.18;;;2.28;;
66856;SDS011;53766;50.280;19.160;2023-07-31T06:39:04;5.35;;;2.20;;
66856;SDS011;53766;50.280;19.160;2023-07-31T06:41:31;5.00;;;1.90;;
66856;SDS011;53766;50.280;19.160;2023-07-31T06:43:59;6.28;;;2.38;;
66856;SDS011;53766;50.280;19.160;2023-07-31T06:46:27;4.55;;;1.92;;
66856;SDS011;53766;50.280;19.160;2023-07-31T06:48:54;8.43;;;2.50;;
66856;SDS011;53766;50.280;19.160;2023-07-31T06:51:22;5.13;;;2.10;;
66856;SDS011;53766;50.280;19.160;2023-07-31T06:53:49;4.15;;;1.85;;
66856;SDS011;53766;50.280;19.160;2023-07-31T06:56:17;5.72;;;2.53;;
66856;SDS011;53766;50.280;19.160;2023-07-31T06:58:44;5.85;;;2.28;;
66856;SDS011;53766;50.280;19.160;2023-07-31T07:01:12;3.83;;;2.00;;
66856;SDS011;53766;50.280;19.160;2023-07-31T07:03:40;5.53;;;2.05;;
66856;SDS011;53766;50.280;19.160;2023-07-31T07:06:07;6.15;;;1.83;;
66856;SDS011;53766;50.280;19.160;2023-07-31T07:08:34;7.45;;;2.08;;
66856;SDS011;53766;50.280;19.160;2023-07-31T07:11:02;6.18;;;1.92;;
66856;SDS011;53766;50.280;19.160;2023-07-31T07:13:29;6.28;;;1.88;;
66856;SDS011;53766;50.280;19.160;2023-07-31T07:15:57;6.60;;;2.08;;
66856;SDS011;53766;50.280;19.160;2023-07-31T07:18:24;3.60;;;1.73;;
66856;SDS011;53766;50.280;19.160;2023-07-31T07:20:52;5.47;;;2.15;;
66856;SDS011;53766;50.280;19.160;2023-07-31T07:23:21;8.90;;;2.50;;
66856;SDS011;53766;50.280;19.160;2023-07-31T07:25:48;6.93;;;2.28;;
66856;SDS011;53766;50.280;19.160;2023-07-31T07:28:16;7.88;;;2.38;;
66856;SDS011;53766;50.280;19.160;2023-07-31T07:30:43;8.63;;;2.40;;
66856;SDS011;53766;50.280;19.160;2023-07-31T07:33:11;4.18;;;2.00;;
66856;SDS011;53766;50.280;19.160;2023-07-31T07:35:39;7.47;;;2.33;;
66856;SDS011;53766;50.280;19.160;2023-07-31T07:38:07;5.20;;;2.10;;
66856;SDS011;53766;50.280;19.160;2023-07-31T07:40:38;4.35;;;1.95;;
66856;SDS011;53766;50.280;19.160;2023-07-31T07:43:08;4.18;;;1.98;;
66856;SDS011;53766;50.280;19.160;2023-07-31T07:45:36;6.18;;;2.35;;
66856;SDS011;53766;50.280;19.160;2023-07-31T07:48:03;7.72;;;2.03;;
66856;SDS011;53766;50.280;19.160;2023-07-31T07:50:31;7.40;;;2.13;;
66856;SDS011;53766;50.280;19.160;2023-07-31T07:52:59;6.95;;;2.13;;
66856;SDS011;53766;50.280;19.160;2023-07-31T07:55:26;8.00;;;2.33;;
66856;SDS011;53766;50.280;19.160;2023-07-31T07:57:54;3.90;;;1.98;;
66856;SDS011;53766;50.280;19.160;2023-07-31T08:00:21;5.50;;;2.10;;
66856;SDS011;53766;50.280;19.160;2023-07-31T08:02:49;4.43;;;1.90;;
66856;SDS011;53766;50.280;19.160;2023-07-31T08:05:17;6.60;;;2.17;;
66856;SDS011;53766;50.280;19.160;2023-07-31T08:07:45;8.30;;;2.20;;
66856;SDS011;53766;50.280;19.160;2023-07-31T08:10:12;8.02;;;2.10;;
66856;SDS011;53766;50.280;19.160;2023-07-31T08:12:40;6.50;;;2.15;;
66856;SDS011;53766;50.280;19.160;2023-07-31T08:15:07;4.82;;;2.20;;
66856;SDS011;53766;50.280;19.160;2023-07-31T08:17:35;5.32;;;2.08;;
66856;SDS011;53766;50.280;19.160;2023-07-31T08:20:03;4.63;;;1.98;;
66856;SDS011;53766;50.280;19.160;2023-07-31T08:22:32;7.43;;;2.38;;
66856;SDS011;53766;50.280;19.160;2023-07-31T08:24:59;7.07;;;2.30;;
66856;SDS011;53766;50.280;19.160;2023-07-31T08:27:27;4.95;;;2.45;;
66856;SDS011;53766;50.280;19.160;2023-07-31T08:29:54;6.00;;;2.53;;
66856;SDS011;53766;50.280;19.160;2023-07-31T08:32:22;6.03;;;2.65;;
66856;SDS011;53766;50.280;19.160;2023-07-31T08:34:49;7.38;;;2.40;;
66856;SDS011;53766;50.280;19.160;2023-07-31T08:37:17;4.93;;;2.45;;
66856;SDS011;53766;50.280;19.160;2023-07-31T08:39:44;5.55;;;2.10;;
66856;SDS011;53766;50.280;19.160;2023-07-31T08:42:12;5.50;;;2.10;;
66856;SDS011;53766;50.280;19.160;2023-07-31T08:44:39;6.28;;;2.20;;
66856;SDS011;53766;50.280;19.160;2023-07-31T08:47:07;8.95;;;2.28;;
66856;SDS011;53766;50.280;19.160;2023-07-31T08:49:35;4.38;;;2.13;;
66856;SDS011;53766;50.280;19.160;2023-07-31T08:52:06;5.22;;;2.00;;
66856;SDS011;53766;50.280;19.160;2023-07-31T08:54:33;4.70;;;2.22;;
66856;SDS011;53766;50.280;19.160;2023-07-31T08:57:01;11.82;;;2.28;;
66856;SDS011;53766;50.280;19.160;2023-07-31T08:59:29;5.90;;;2.13;;
66856;SDS011;53766;50.280;19.160;2023-07-31T09:01:59;7.72;;;1.90;;
66856;SDS011;53766;50.280;19.160;2023-07-31T09:04:33;4.05;;;1.85;;
66856;SDS011;53766;50.280;19.160;2023-07-31T09:07:02;5.85;;;2.10;;
66856;SDS011;53766;50.280;19.160;2023-07-31T09:09:31;7.60;;;1.90;;
66856;SDS011;53766;50.280;19.160;2023-07-31T09:11:59;3.40;;;1.70;;
66856;SDS011;53766;50.280;19.160;2023-07-31T09:14:27;5.22;;;2.08;;
66856;SDS011;53766;50.280;19.160;2023-07-31T09:16:56;4.68;;;1.90;;
66856;SDS011;53766;50.280;19.160;2023-07-31T09:19:27;4.38;;;1.98;;
66856;SDS011;53766;50.280;19.160;2023-07-31T09:21:57;4.05;;;1.63;;
66856;SDS011;53766;50.280;19.160;2023-07-31T09:24:25;4.90;;;1.65;;
66856;SDS011;53766;50.280;19.160;2023-07-31T09:26:58;6.18;;;1.98;;
66856;SDS011;53766;50.280;19.160;2023-07-31T09:29:27;3.47;;;1.70;;
66856;SDS011;53766;50.280;19.160;2023-07-31T09:31:57;6.05;;;2.15;;
66856;SDS011;53766;50.280;19.160;2023-07-31T09:34:43;5.25;;;1.65;;
66856;SDS011;53766;50.280;19.160;2023-07-31T09:37:11;4.53;;;1.85;;
66856;SDS011;53766;50.280;19.160;2023-07-31T09:39:45;4.10;;;1.50;;
66856;SDS011;53766;50.280;19.160;2023-07-31T09:42:14;9.70;;;2.00;;
66856;SDS011;53766;50.280;19.160;2023-07-31T09:44:51;4.32;;;1.77;;
66856;SDS011;53766;50.280;19.160;2023-07-31T09:47:22;5.15;;;1.83;;
66856;SDS011;53766;50.280;19.160;2023-07-31T09:49:51;3.53;;;1.60;;
66856;SDS011;53766;50.280;19.160;2023-07-31T09:52:19;6.50;;;1.73;;
66856;SDS011;53766;50.280;19.160;2023-07-31T09:54:47;7.07;;;1.98;;
66856;SDS011;53766;50.280;19.160;2023-07-31T09:57:15;5.53;;;2.15;;
66856;SDS011;53766;50.280;19.160;2023-07-31T09:59:45;4.32;;;1.58;;
66856;SDS011;53766;50.280;19.160;2023-07-31T10:02:15;4.60;;;1.63;;
66856;SDS011;53766;50.280;19.160;2023-07-31T10:04:49;6.53;;;1.95;;
66856;SDS011;53766;50.280;19.160;2023-07-31T10:07:18;4.70;;;1.85;;
66856;SDS011;53766;50.280;19.160;2023-07-31T10:09:47;4.25;;;1.60;;
66856;SDS011;53766;50.280;19.160;2023-07-31T10:12:16;5.63;;;1.85;;
66856;SDS011;53766;50.280;19.160;2023-07-31T10:14:46;5.15;;;2.05;;
66856;SDS011;53766;50.280;19.160;2023-07-31T10:17:14;6.85;;;1.95;;
66856;SDS011;53766;50.280;19.160;2023-07-31T10:19:44;5.63;;;1.88;;
66856;SDS011;53766;50.280;19.160;2023-07-31T10:22:12;4.20;;;1.77;;
66856;SDS011;53766;50.280;19.160;2023-07-31T10:24:50;4.22;;;1.80;;
66856;SDS011;53766;50.280;19.160;2023-07-31T10:27:21;6.10;;;1.80;;
66856;SDS011;53766;50.280;19.160;2023-07-31T10:29:49;9.20;;;1.85;;
66856;SDS011;53766;50.280;19.160;2023-07-31T10:32:17;6.82;;;1.80;;
66856;SDS011;53766;50.280;19.160;2023-07-31T10:34:46;4.80;;;1.80;;
66856;SDS011;53766;50.280;19.160;2023-07-31T10:37:23;7.90;;;1.75;;
66856;SDS011;53766;50.280;19.160;2023-07-31T10:40:00;6.25;;;1.95;;
66856;SDS011;53766;50.280;19.160;2023-07-31T10:42:30;4.40;;;1.60;;
66856;SDS011;53766;50.280;19.160;2023-07-31T10:45:04;5.93;;;1.65;;
66856;SDS011;53766;50.280;19.160;2023-07-31T10:47:58;6.70;;;1.90;;
66856;SDS011;53766;50.280;19.160;2023-07-31T10:50:28;4.30;;;1.60;;
66856;SDS011;53766;50.280;19.160;2023-07-31T10:52:57;5.55;;;1.92;;
66856;SDS011;53766;50.280;19.160;2023-07-31T10:55:31;3.00;;;1.60;;
66856;SDS011;53766;50.280;19.160;2023-07-31T10:58:10;4.63;;;1.92;;
66856;SDS011;53766;50.280;19.160;2023-07-31T11:00:41;5.18;;;1.63;;
66856;SDS011;53766;50.280;19.160;2023-07-31T11:03:13;6.70;;;1.88;;
66856;SDS011;53766;50.280;19.160;2023-07-31T11:05:52;4.10;;;1.75;;
66856;SDS011;53766;50.280;19.160;2023-07-31T11:08:27;5.22;;;1.80;;
66856;SDS011;53766;50.280;19.160;2023-07-31T11:13:30;6.38;;;1.70;;
66856;SDS011;53766;50.280;19.160;2023-07-31T11:15:58;4.93;;;1.88;;
66856;SDS011;53766;50.280;19.160;2023-07-31T11:18:27;4.70;;;1.85;;
66856;SDS011;53766;50.280;19.160;2023-07-31T11:20:55;5.80;;;1.67;;
66856;SDS011;53766;50.280;19.160;2023-07-31T11:23:22;3.97;;;1.65;;
66856;SDS011;53766;50.280;19.160;2023-07-31T11:25:50;6.10;;;1.80;;
66856;SDS011;53766;50.280;19.160;2023-07-31T11:28:18;5.47;;;1.70;;
66856;SDS011;53766;50.280;19.160;2023-07-31T11:30:46;4.60;;;1.77;;
66856;SDS011;53766;50.280;19.160;2023-07-31T11:33:14;4.47;;;1.60;;
66856;SDS011;53766;50.280;19.160;2023-07-31T11:35:46;5.07;;;1.67;;
66856;SDS011;53766;50.280;19.160;2023-07-31T11:40:51;5.90;;;1.90;;
66856;SDS011;53766;50.280;19.160;2023-07-31T11:43:23;4.15;;;1.70;;
66856;SDS011;53766;50.280;19.160;2023-07-31T11:45:55;5.05;;;1.67;;
66856;SDS011;53766;50.280;19.160;2023-07-31T11:48:27;6.80;;;1.70;;
66856;SDS011;53766;50.280;19.160;2023-07-31T11:50:57;3.40;;;1.50;;
66856;SDS011;53766;50.280;19.160;2023-07-31T11:55:59;4.65;;;1.73;;
66856;SDS011;53766;50.280;19.160;2023-07-31T11:58:30;6.55;;;2.35;;
66856;SDS011;53766;50.280;19.160;2023-07-31T12:00:59;5.63;;;1.70;;
66856;SDS011;53766;50.280;19.160;2023-07-31T12:03:27;4.97;;;1.90;;
66856;SDS011;53766;50.280;19.160;2023-07-31T12:05:55;4.57;;;1.40;;
66856;SDS011;53766;50.280;19.160;2023-07-31T12:08:23;3.95;;;1.70;;
66856;SDS011;53766;50.280;19.160;2023-07-31T12:10:52;3.67;;;1.60;;
66856;SDS011;53766;50.280;19.160;2023-07-31T12:13:21;5.95;;;1.77;;
66856;SDS011;53766;50.280;19.160;2023-07-31T12:15:57;4.32;;;1.73;;
66856;SDS011;53766;50.280;19.160;2023-07-31T12:18:27;3.63;;;1.45;;
66856;SDS011;53766;50.280;19.160;2023-07-31T12:20:58;7.22;;;1.75;;
66856;SDS011;53766;50.280;19.160;2023-07-31T12:23:27;5.80;;;1.83;;
66856;SDS011;53766;50.280;19.160;2023-07-31T12:28:36;8.32;;;2.40;;
66856;SDS011;53766;50.280;19.160;2023-07-31T12:31:07;3.72;;;2.17;;
66856;SDS011;53766;50.280;19.160;2023-07-31T12:33:36;6.00;;;2.47;;
66856;SDS011;53766;50.280;19.160;2023-07-31T12:36:12;7.00;;;2.90;;
66856;SDS011;53766;50.280;19.160;2023-07-31T12:38:41;8.45;;;2.50;;
66856;SDS011;53766;50.280;19.160;2023-07-31T12:41:10;5.13;;;1.90;;
66856;SDS011;53766;50.280;19.160;2023-07-31T12:43:38;2.97;;;1.83;;
66856;SDS011;53766;50.280;19.160;2023-07-31T12:46:08;5.78;;;1.98;;
66856;SDS011;53766;50.280;19.160;2023-07-31T12:48:36;4.70;;;2.03;;
66856;SDS011;53766;50.280;19.160;2023-07-31T12:51:07;3.67;;;1.98;;
66856;SDS011;53766;50.280;19.160;2023-07-31T12:53:35;5.63;;;2.45;;
66856;SDS011;53766;50.280;19.160;2023-07-31T12:56:03;5.78;;;1.98;;
66856;SDS011;53766;50.280;19.160;2023-07-31T12:58:31;4.25;;;1.90;;
66856;SDS011;53766;50.280;19.160;2023-07-31T13:00:58;4.88;;;1.98;;
66856;SDS011;53766;50.280;19.160;2023-07-31T13:03:26;6.15;;;2.45;;
66856;SDS011;53766;50.280;19.160;2023-07-31T13:05:54;3.95;;;2.10;;
66856;SDS011;53766;50.280;19.160;2023-07-31T13:08:21;5.50;;;1.92;;
66856;SDS011;53766;50.280;19.160;2023-07-31T13:10:49;6.70;;;1.80;;
66856;SDS011;53766;50.280;19.160;2023-07-31T13:13:17;5.03;;;1.67;;
66856;SDS011;53766;50.280;19.160;2023-07-31T13:15:44;5.63;;;2.28;;
66856;SDS011;53766;50.280;19.160;2023-07-31T13:18:12;3.92;;;1.85;;
66856;SDS011;53766;50.280;19.160;2023-07-31T13:20:40;6.38;;;1.90;;
66856;SDS011;53766;50.280;19.160;2023-07-31T13:23:07;3.53;;;1.70;;
66856;SDS011;53766;50.280;19.160;2023-07-31T13:25:35;4.70;;;1.70;;
66856;SDS011;53766;50.280;19.160;2023-07-31T13:28:03;5.80;;;1.88;;
66856;SDS011;53766;50.280;19.160;2023-07-31T13:30:31;4.78;;;1.88;;
66856;SDS011;53766;50.280;19.160;2023-07-31T13:32:58;5.13;;;1.80;;
66856;SDS011;53766;50.280;19.160;2023-07-31T13:35:26;4.53;;;1.73;;
66856;SDS011;53766;50.280;19.160;2023-07-31T13:37:53;8.80;;;2.75;;
66856;SDS011;53766;50.280;19.160;2023-07-31T13:40:21;4.32;;;1.67;;
66856;SDS011;53766;50.280;19.160;2023-07-31T13:42:49;4.25;;;1.80;;
66856;SDS011;53766;50.280;19.160;2023-07-31T13:45:16;4.07;;;1.88;;
66856;SDS011;53766;50.280;19.160;2023-07-31T13:47:44;4.10;;;1.70;;
66856;SDS011;53766;50.280;19.160;2023-07-31T13:50:12;5.43;;;1.48;;
66856;SDS011;53766;50.280;19.160;2023-07-31T13:52:42;3.30;;;1.80;;
66856;SDS011;53766;50.280;19.160;2023-07-31T13:55:11;4.05;;;1.58;;
66856;SDS011;53766;50.280;19.160;2023-07-31T13:57:39;5.25;;;1.70;;
66856;SDS011;53766;50.280;19.160;2023-07-31T14:00:07;4.63;;;1.70;;
66856;SDS011;53766;50.280;19.160;2023-07-31T14:02:35;4.72;;;1.75;;
66856;SDS011;53766;50.280;19.160;2023-07-31T14:05:03;5.45;;;1.63;;
66856;SDS011;53766;50.280;19.160;2023-07-31T14:07:32;6.47;;;1.63;;
66856;SDS011;53766;50.280;19.160;2023-07-31T14:09:59;3.78;;;1.60;;
66856;SDS011;53766;50.280;19.160;2023-07-31T14:12:27;6.10;;;1.50;;
66856;SDS011;53766;50.280;19.160;2023-07-31T14:15:09;6.90;;;2.10;;
66856;SDS011;53766;50.280;19.160;2023-07-31T14:17:37;5.78;;;2.00;;
66856;SDS011;53766;50.280;19.160;2023-07-31T14:20:05;6.57;;;1.85;;
66856;SDS011;53766;50.280;19.160;2023-07-31T14:22:33;6.40;;;1.88;;
66856;SDS011;53766;50.280;19.160;2023-07-31T14:25:01;3.70;;;1.70;;
66856;SDS011;53766;50.280;19.160;2023-07-31T14:27:29;5.22;;;1.60;;
66856;SDS011;53766;50.280;19.160;2023-07-31T14:29:57;5.90;;;1.92;;
66856;SDS011;53766;50.280;19.160;2023-07-31T14:32:24;4.13;;;1.63;;
66856;SDS011;53766;50.280;19.160;2023-07-31T14:34:53;4.18;;;1.70;;
66856;SDS011;53766;50.280;19.160;2023-07-31T14:37:21;3.97;;;1.58;;
66856;SDS011;53766;50.280;19.160;2023-07-31T14:39:49;3.92;;;1.60;;
66856;SDS011;53766;50.280;19.160;2023-07-31T14:42:17;5.63;;;1.80;;
66856;SDS011;53766;50.280;19.160;2023-07-31T14:44:46;4.82;;;1.80;;
66856;SDS011;53766;50.280;19.160;2023-07-31T14:47:14;4.13;;;1.60;;
66856;SDS011;53766;50.280;19.160;2023-07-31T14:49:41;5.28;;;1.70;;
66856;SDS011;53766;50.280;19.160;2023-07-31T14:52:09;4.28;;;1.60;;
66856;SDS011;53766;50.280;19.160;2023-07-31T14:54:37;4.40;;;1.48;;
66856;SDS011;53766;50.280;19.160;2023-07-31T14:57:04;5.95;;;1.80;;
66856;SDS011;53766;50.280;19.160;2023-07-31T14:59:33;5.43;;;1.70;;